createdAt,value
2023-05-21T00:01:28.486Z,60.04
2023-05-21T00:03:58.970Z,59.92
2023-05-21T00:06:29.750Z,61.77
2023-05-21T00:09:00.177Z,61.77
2023-05-21T00:11:32.021Z,60.91
2023-05-21T00:14:02.499Z,60.78
2023-05-21T00:16:33.389Z,60.52
2023-05-21T00:19:03.784Z,60.99
2023-05-21T00:21:34.150Z,61.70
2023-05-21T00:24:06.788Z,61.75
2023-05-21T00:26:37.005Z,61.60
2023-05-21T00:29:07.387Z,62.29
2023-05-21T00:31:37.876Z,62.19
2023-05-21T00:34:08.285Z,62.19
2023-05-21T00:36:38.858Z,62.51
2023-05-21T00:39:09.217Z,62.47
2023-05-21T00:41:39.700Z,62.47
2023-05-21T00:44:10.346Z,63.05
2023-05-21T00:46:41.493Z,63.05
2023-05-21T00:49:17.963Z,64.30
2023-05-21T00:51:48.925Z,64.03
2023-05-21T00:54:19.647Z,64.04
2023-05-21T00:56:51.386Z,63.79
2023-05-21T00:59:21.864Z,63.79
2023-05-21T01:01:53.430Z,63.82
2023-05-21T01:04:26.919Z,63.82
2023-05-21T01:06:57.316Z,63.42
2023-05-21T01:09:28.592Z,63.98
2023-05-21T01:11:59.662Z,63.71
2023-05-21T01:14:31.061Z,63.71
2023-05-21T01:17:02.527Z,63.86
2023-05-21T01:19:33.822Z,64.56
2023-05-21T01:22:08.499Z,64.56
2023-05-21T01:24:39.004Z,63.90
2023-05-21T01:27:09.208Z,64.46
2023-05-21T01:29:39.551Z,65.45
2023-05-21T01:32:28.367Z,65.45
2023-05-21T01:35:20.238Z,65.29
2023-05-21T01:37:53.684Z,65.29
2023-05-21T01:40:42.074Z,65.09
2023-05-21T01:43:14.431Z,65.74
2023-05-21T01:45:46.714Z,65.86
2023-05-21T01:48:38.200Z,65.48
2023-05-21T01:51:08.846Z,65.48
2023-05-21T01:53:39.442Z,66.05
2023-05-21T01:56:09.831Z,66.47
2023-05-21T01:58:40.803Z,66.47
2023-05-21T02:01:11.206Z,65.63
2023-05-21T02:03:41.836Z,66.57
2023-05-21T02:06:12.200Z,65.83
2023-05-21T02:08:42.590Z,65.86
2023-05-21T02:11:13.074Z,65.24
2023-05-21T02:13:43.542Z,65.05
2023-05-21T02:16:13.997Z,65.05
2023-05-21T02:18:44.436Z,64.73
2023-05-21T02:21:14.721Z,64.46
2023-05-21T02:23:45.290Z,64.46
2023-05-21T02:26:15.603Z,65.32
2023-05-21T02:28:45.898Z,65.32
2023-05-21T02:31:16.279Z,64.86
2023-05-21T02:33:47.388Z,64.86
2023-05-21T02:36:17.984Z,64.18
2023-05-21T02:38:48.210Z,63.49
2023-05-21T02:41:18.575Z,63.69
2023-05-21T02:43:49.195Z,63.75
2023-05-21T02:46:19.559Z,63.14
2023-05-21T02:48:50.138Z,63.14
2023-05-21T02:51:20.507Z,63.53
2023-05-21T02:53:50.934Z,63.00
2023-05-21T02:56:21.433Z,62.65
2023-05-21T02:58:52.035Z,61.75
2023-05-21T03:01:22.377Z,63.04
2023-05-21T03:03:52.646Z,62.18
2023-05-21T03:06:22.960Z,61.03
2023-05-21T03:08:53.509Z,61.03
2023-05-21T03:11:23.811Z,61.34
2023-05-21T03:13:54.461Z,61.06
2023-05-21T03:16:24.869Z,60.73
2023-05-21T03:18:55.662Z,60.46
2023-05-21T03:21:26.364Z,60.07
2023-05-21T03:23:57.088Z,60.07
2023-05-21T03:26:29.282Z,59.52
2023-05-21T03:29:00.200Z,59.52
2023-05-21T03:31:30.616Z,59.59
2023-05-21T03:34:00.913Z,60.12
2023-05-21T03:36:31.561Z,59.66
2023-05-21T03:39:01.908Z,59.25
2023-05-21T03:41:32.710Z,60.38
2023-05-21T03:44:03.007Z,60.38
2023-05-21T03:46:33.934Z,59.64
2023-05-21T03:49:04.402Z,60.40
2023-05-21T03:51:35.090Z,61.23
2023-05-21T03:54:05.423Z,61.23
2023-05-21T03:56:35.739Z,59.99
2023-05-21T03:59:06.124Z,60.14
2023-05-21T04:01:36.610Z,60.09
2023-05-21T04:04:07.131Z,60.84
2023-05-21T04:06:38.426Z,60.84
2023-05-21T04:09:08.791Z,60.68
2023-05-21T04:11:39.789Z,59.16
2023-05-21T04:14:10.393Z,58.97
2023-05-21T04:16:40.814Z,59.02
2023-05-21T04:19:11.251Z,59.02
2023-05-21T04:21:41.826Z,59.46
2023-05-21T04:24:12.126Z,57.82
2023-05-21T04:26:42.548Z,57.54
2023-05-21T04:29:12.947Z,58.29
2023-05-21T04:31:45.859Z,58.29
2023-05-21T04:34:16.718Z,56.88
2023-05-21T04:36:47.696Z,57.31
2023-05-21T04:39:18.012Z,57.00
2023-05-21T04:41:48.355Z,57.00
2023-05-21T04:44:22.060Z,56.67
2023-05-21T04:46:52.310Z,56.80
2023-05-21T04:49:23.019Z,55.48
2023-05-21T04:52:00.816Z,55.48
2023-05-21T04:54:32.714Z,54.41
2023-05-21T04:57:17.032Z,51.58
2023-05-21T05:00:12.392Z,50.57
2023-05-21T05:02:43.390Z,50.57
2023-05-21T05:05:13.921Z,47.90
2023-05-21T05:07:44.736Z,49.79
2023-05-21T05:10:15.194Z,49.79
2023-05-21T05:12:45.617Z,47.76
2023-05-21T05:15:16.090Z,48.40
2023-05-21T05:17:49.502Z,48.40
2023-05-21T05:20:19.751Z,49.52
2023-05-21T05:22:50.125Z,48.58
2023-05-21T05:25:20.816Z,48.61
2023-05-21T05:27:51.258Z,48.61
2023-05-21T05:30:21.811Z,49.60
2023-05-21T05:32:52.364Z,48.24
2023-05-21T05:35:22.954Z,47.74
2023-05-21T05:37:53.182Z,46.47
2023-05-21T05:40:23.506Z,46.47
2023-05-21T05:42:54.041Z,47.99
2023-05-21T05:45:25.914Z,46.18
2023-05-21T05:47:56.831Z,46.18
2023-05-21T05:50:28.465Z,47.97
2023-05-21T05:53:03.233Z,48.60
2023-05-21T05:55:40.941Z,48.60
2023-05-21T05:58:11.221Z,48.71
2023-05-21T06:04:06.076Z,48.06
2023-05-21T06:06:36.581Z,46.06
2023-05-21T06:09:07.072Z,46.61
2023-05-21T06:11:40.574Z,46.55
2023-05-21T06:14:10.887Z,46.93
2023-05-21T06:16:41.286Z,46.93
2023-05-21T06:19:11.772Z,46.86
2023-05-21T06:21:42.169Z,46.29
2023-05-21T06:24:14.805Z,45.37
2023-05-21T06:26:45.028Z,45.37
2023-05-21T06:29:15.645Z,43.00
2023-05-21T06:31:46.422Z,43.00
2023-05-21T06:34:20.415Z,47.09
2023-05-21T06:36:51.792Z,45.63
2023-05-21T06:39:22.233Z,45.63
2023-05-21T06:41:52.693Z,46.76
2023-05-21T06:44:23.294Z,46.51
2023-05-21T06:46:53.746Z,46.51
2023-05-21T06:49:30.266Z,47.28
2023-05-21T06:52:04.759Z,46.58
2023-05-21T06:57:58.842Z,49.52
2023-05-21T07:00:37.195Z,48.84
2023-05-21T07:03:19.361Z,48.43
2023-05-21T07:05:49.400Z,48.16
2023-05-21T07:08:22.578Z,47.35
2023-05-21T07:10:53.053Z,49.19
2023-05-21T07:13:26.185Z,49.19
2023-05-21T07:15:56.543Z,48.35
2023-05-21T07:18:27.039Z,48.13
2023-05-21T07:20:57.450Z,46.79
2023-05-21T07:23:31.507Z,47.43
2023-05-21T07:26:02.193Z,48.56
2023-05-21T07:28:33.088Z,48.56
2023-05-21T07:31:03.505Z,49.10
2023-05-21T07:33:34.615Z,49.10
2023-05-21T07:36:05.690Z,47.70
2023-05-21T07:38:37.175Z,49.48
2023-05-21T07:41:07.878Z,45.63
2023-05-21T07:43:38.637Z,45.63
2023-05-21T07:46:08.994Z,46.91
2023-05-21T07:48:39.424Z,43.98
2023-05-21T07:51:11.448Z,44.45
2023-05-21T07:53:42.050Z,39.88
2023-05-21T07:56:12.393Z,39.02
2023-05-21T07:58:42.740Z,39.02
2023-05-21T08:01:17.776Z,41.18
2023-05-21T08:03:48.266Z,40.15
2023-05-21T08:06:18.942Z,40.15
2023-05-21T08:08:49.165Z,39.63
2023-05-21T08:11:19.631Z,41.44
2023-05-21T08:13:50.153Z,41.28
2023-05-21T08:16:21.063Z,41.63
2023-05-21T08:18:51.716Z,45.02
2023-05-21T08:21:22.845Z,43.00
2023-05-21T08:23:56.365Z,46.90
2023-05-21T08:26:27.694Z,43.61
2023-05-21T08:28:58.020Z,43.24
2023-05-21T08:31:28.428Z,43.24
2023-05-21T08:33:58.981Z,42.34
2023-05-21T08:36:29.447Z,42.34
2023-05-21T08:38:59.696Z,41.82
2023-05-21T08:41:33.811Z,43.00
2023-05-21T08:44:06.771Z,43.00
2023-05-21T08:46:38.764Z,45.04
2023-05-21T08:49:12.292Z,44.89
2023-05-21T08:51:46.036Z,43.08
2023-05-21T08:54:16.614Z,43.69
2023-05-21T08:56:47.949Z,43.37
2023-05-21T08:59:20.664Z,43.07
2023-05-21T09:01:52.450Z,43.60
2023-05-21T09:04:24.277Z,43.60
2023-05-21T09:06:55.773Z,47.07
2023-05-21T09:12:14.586Z,43.86
2023-05-21T09:14:46.620Z,43.86
2023-05-21T09:17:17.347Z,44.36
2023-05-21T09:20:07.247Z,42.97
2023-05-21T09:22:41.944Z,44.61
2023-05-21T09:25:18.246Z,46.48
2023-05-21T09:27:50.550Z,43.87
2023-05-21T09:30:25.288Z,44.64
2023-05-21T09:32:58.885Z,45.48
2023-05-21T09:35:29.390Z,45.48
2023-05-21T09:37:59.896Z,46.01
2023-05-21T09:40:30.399Z,54.26
2023-05-21T09:43:00.895Z,54.69
2023-05-21T09:45:31.634Z,54.69
2023-05-21T09:48:03.919Z,64.56
2023-05-21T09:50:36.310Z,64.56
2023-05-21T09:53:10.043Z,68.36
2023-05-21T09:55:41.130Z,68.36
2023-05-21T09:58:11.792Z,69.98
2023-05-21T10:00:43.793Z,73.56
2023-05-21T10:03:16.623Z,69.93
2023-05-21T10:05:47.126Z,69.76
2023-05-21T10:08:21.926Z,70.32
2023-05-21T10:10:52.182Z,67.31
2023-05-21T10:13:26.011Z,66.71
2023-05-21T10:16:20.031Z,66.71
2023-05-21T10:18:51.115Z,64.75
2023-05-21T10:21:22.806Z,64.75
2023-05-21T10:23:55.890Z,62.57
2023-05-21T10:26:28.206Z,62.20
2023-05-21T10:28:59.094Z,62.20
2023-05-21T10:31:34.263Z,62.02
2023-05-21T10:34:14.602Z,54.48
2023-05-21T10:36:46.443Z,54.48
2023-05-21T10:39:18.987Z,57.30
2023-05-21T10:42:08.843Z,56.79
2023-05-21T10:45:04.490Z,56.79
2023-05-21T10:48:01.709Z,59.76
2023-05-21T10:50:58.957Z,59.76
2023-05-21T10:53:41.441Z,57.93
2023-05-21T10:56:31.098Z,59.50
2023-05-21T10:59:16.985Z,57.47
2023-05-21T11:02:06.044Z,57.47
2023-05-21T11:04:36.963Z,59.18
2023-05-21T11:07:07.421Z,59.18
2023-05-21T11:09:39.028Z,61.67
2023-05-21T11:12:09.941Z,61.67
2023-05-21T11:14:42.206Z,56.15
2023-05-21T11:17:15.144Z,56.15
2023-05-21T11:19:47.342Z,55.64
2023-05-21T11:22:25.550Z,56.31
2023-05-21T11:25:00.257Z,56.64
2023-05-21T11:27:38.699Z,55.91
2023-05-21T11:30:17.706Z,55.91
2023-05-21T11:33:11.254Z,56.18
2023-05-21T11:35:57.106Z,54.83
2023-05-21T11:38:30.620Z,52.72
2023-05-21T11:44:23.520Z,53.03
2023-05-21T11:46:56.183Z,52.87
2023-05-21T11:49:28.935Z,51.66
2023-05-21T11:52:01.522Z,50.20
2023-05-21T11:54:33.582Z,50.20
2023-05-21T11:59:56.196Z,49.60
2023-05-21T12:02:34.408Z,46.42
2023-05-21T12:05:08.526Z,46.42
2023-05-21T12:10:19.925Z,44.26
2023-05-21T12:13:07.349Z,41.41
2023-05-21T12:13:47.783Z,44.26
2023-05-21T12:15:41.885Z,39.86
2023-05-21T12:18:16.362Z,38.06
2023-05-21T12:20:57.898Z,37.62
2023-05-21T12:23:48.597Z,36.00
2023-05-21T12:26:21.489Z,33.07
2023-05-21T12:29:03.348Z,32.40
2023-05-21T12:31:33.835Z,31.70
2023-05-21T12:34:32.682Z,31.28
2023-05-21T12:37:17.178Z,31.28
2023-05-21T12:40:05.063Z,31.84
2023-05-21T12:42:41.154Z,31.39
2023-05-21T12:45:13.704Z,31.39
2023-05-21T12:47:47.044Z,31.31
2023-05-21T12:50:20.600Z,30.55
2023-05-21T12:53:02.220Z,31.13
2023-05-21T12:55:33.224Z,31.13
2023-05-21T12:58:10.789Z,31.56
2023-05-21T13:00:54.091Z,31.56
2023-05-21T13:03:24.508Z,31.23
2023-05-21T13:06:13.911Z,31.79
2023-05-21T13:08:51.120Z,31.79
2023-05-21T13:11:24.594Z,30.08
2023-05-21T13:13:55.010Z,31.26
2023-05-21T13:16:32.101Z,31.26
2023-05-21T13:19:13.304Z,30.28
2023-05-21T13:21:43.738Z,30.81
2023-05-21T13:24:16.834Z,30.47
2023-05-21T13:26:56.715Z,29.86
2023-05-21T13:29:28.030Z,29.86
2023-05-21T13:31:58.426Z,32.67
2023-05-21T13:34:31.739Z,32.67
2023-05-21T13:37:02.853Z,31.69
2023-05-21T13:39:34.584Z,32.41
2023-05-21T13:42:05.161Z,34.70
2023-05-21T13:44:39.398Z,36.52
2023-05-21T13:47:11.407Z,37.09
2023-05-21T13:49:42.449Z,37.02
2023-05-21T13:52:13.436Z,37.02
2023-05-21T13:54:44.432Z,41.18
2023-05-21T14:00:08.288Z,41.53
2023-05-21T14:02:39.025Z,43.04
2023-05-21T14:05:11.695Z,44.36
2023-05-21T14:07:42.384Z,48.30
2023-05-21T14:10:13.315Z,48.30
2023-05-21T14:12:44.554Z,48.40
2023-05-21T14:15:15.177Z,51.39
2023-05-21T14:17:48.963Z,57.05
2023-05-21T14:20:19.447Z,57.05
2023-05-21T14:22:57.313Z,58.23
2023-05-21T14:26:13.212Z,58.75
2023-05-21T14:28:33.322Z,58.77
2023-05-21T14:31:08.499Z,60.17
2023-05-21T14:33:39.462Z,60.17
2023-05-21T14:36:09.906Z,62.27
2023-05-21T14:38:40.417Z,56.29
2023-05-21T14:41:11.273Z,52.87
2023-05-21T14:44:07.371Z,52.87
2023-05-21T14:46:44.119Z,53.31
2023-05-21T14:49:29.416Z,52.74
2023-05-21T14:52:08.504Z,47.38
2023-05-21T15:08:13.426Z,42.93
2023-05-21T15:10:45.556Z,44.94
2023-05-21T15:13:16.209Z,44.94
2023-05-21T15:15:46.728Z,44.67
2023-05-21T15:18:47.641Z,44.64
2023-05-21T15:21:18.749Z,44.64
2023-05-21T15:23:50.887Z,45.50
2023-05-21T15:40:26.876Z,45.01
2023-05-21T15:43:23.610Z,45.75
2023-05-21T15:46:02.630Z,43.82
2023-05-21T15:51:30.440Z,43.52
2023-05-21T15:54:00.776Z,43.79
2023-05-21T15:59:45.758Z,44.19
2023-05-21T16:02:24.793Z,45.23
2023-05-21T16:05:36.441Z,46.56
2023-05-21T16:08:12.329Z,47.07
2023-05-21T16:13:28.732Z,46.40
2023-05-21T16:16:05.317Z,47.98
2023-05-21T16:31:59.364Z,50.88
2023-05-21T16:34:29.742Z,50.27
2023-05-21T16:37:07.505Z,50.27
2023-05-21T16:39:45.620Z,51.20
2023-05-21T16:42:19.046Z,50.42
2023-05-21T16:44:53.182Z,50.11
2023-05-21T16:47:29.297Z,50.60
2023-05-21T16:49:59.772Z,49.82
2023-05-21T16:52:30.274Z,49.81
2023-05-21T16:55:09.377Z,50.91
2023-05-21T16:57:55.084Z,50.79
2023-05-21T17:00:29.320Z,49.23
2023-05-21T17:03:07.868Z,49.23
2023-05-21T17:05:51.127Z,49.43
2023-05-21T17:08:23.607Z,49.49
2023-05-21T17:17:12.550Z,49.82
2023-05-21T17:19:51.927Z,49.82
2023-05-21T17:22:33.743Z,49.25
2023-05-21T17:25:07.193Z,49.25
2023-05-21T17:27:40.585Z,50.58
2023-05-21T17:30:57.888Z,50.43
2023-05-21T17:33:13.758Z,51.35
2023-05-21T17:35:50.528Z,50.99
2023-05-21T17:38:24.242Z,50.95
2023-05-21T17:41:12.369Z,50.95
2023-05-21T17:43:45.181Z,51.24
2023-05-21T17:46:17.742Z,51.24
2023-05-21T17:48:56.407Z,51.93
2023-05-21T17:51:31.681Z,52.30
2023-05-21T17:54:02.176Z,52.30
2023-05-21T17:56:40.056Z,52.66
2023-05-21T17:59:13.467Z,52.93
2023-05-21T18:04:45.401Z,53.29
2023-05-21T18:07:29.941Z,53.42
2023-05-21T18:09:56.352Z,53.73
2023-05-21T18:12:30.822Z,53.54
2023-05-21T18:15:01.312Z,53.83
2023-05-21T18:17:31.875Z,53.99
2023-05-21T18:20:03.902Z,53.99
2023-05-21T18:22:34.781Z,54.38
2023-05-21T18:25:07.187Z,57.25
2023-05-21T18:27:37.676Z,57.95
2023-05-21T18:30:11.840Z,57.95
2023-05-21T18:32:44.530Z,59.35
2023-05-21T18:35:16.863Z,59.48
2023-05-21T18:37:51.288Z,59.48
2023-05-21T18:40:22.191Z,58.08
2023-05-21T18:43:00.753Z,58.69
2023-05-21T18:45:34.438Z,58.37
2023-05-21T18:48:05.955Z,59.73
2023-05-21T18:50:36.567Z,58.95
2023-05-21T18:53:08.382Z,57.93
2023-05-21T18:55:41.290Z,57.93
2023-05-21T18:58:13.870Z,58.95
2023-05-21T19:00:44.218Z,58.82
2023-05-21T19:03:15.316Z,58.79
2023-05-21T19:05:47.548Z,57.68
2023-05-21T19:08:19.409Z,57.68
2023-05-21T19:11:14.923Z,59.26
2023-05-21T19:13:48.447Z,59.26
2023-05-21T19:16:33.635Z,60.00
2023-05-21T19:19:14.540Z,60.25
2023-05-21T19:21:50.870Z,61.72
2023-05-21T19:24:34.941Z,62.99
2023-05-21T19:27:16.893Z,61.28
2023-05-21T19:30:00.054Z,61.43
2023-05-21T19:32:46.536Z,59.57
2023-05-21T19:39:29.461Z,59.80
2023-05-21T19:41:56.578Z,59.47
2023-05-21T19:58:08.988Z,59.93
2023-05-21T20:01:57.772Z,61.24
2023-05-21T20:03:25.381Z,61.24
2023-05-21T20:05:57.597Z,62.18
2023-05-21T20:08:29.580Z,62.18
2023-05-21T20:11:01.258Z,60.36
2023-05-21T20:13:34.339Z,61.33
2023-05-21T20:16:13.585Z,61.62
2023-05-21T20:18:51.208Z,61.62
2023-05-21T20:21:23.663Z,61.15
2023-05-21T20:23:54.432Z,61.15
2023-05-21T20:26:24.789Z,61.70
2023-05-21T20:29:00.334Z,61.00
2023-05-21T20:31:46.024Z,61.00
2023-05-21T20:34:11.916Z,61.31
2023-05-21T20:36:45.483Z,61.56
2023-05-21T20:39:17.453Z,61.39
2023-05-21T20:41:49.290Z,61.39
2023-05-21T20:44:21.102Z,61.17
2023-05-21T20:46:55.058Z,60.35
2023-05-21T20:49:28.180Z,61.03
2023-05-21T20:51:58.614Z,60.72
2023-05-21T20:54:29.561Z,59.38
2023-05-21T20:56:59.940Z,60.41
2023-05-21T20:59:30.153Z,60.41
2023-05-21T21:02:00.875Z,59.71
2023-05-21T21:04:31.979Z,60.52
2023-05-21T21:07:02.306Z,60.16
2023-05-21T21:09:38.347Z,60.48
2023-05-21T21:12:24.604Z,61.84
2023-05-21T21:14:43.606Z,61.84
2023-05-21T21:17:14.038Z,60.94
2023-05-21T21:19:44.478Z,62.28
2023-05-21T21:22:16.327Z,62.28
2023-05-21T21:24:47.730Z,62.04
2023-05-21T21:27:19.676Z,62.71
2023-05-21T21:29:50.133Z,62.71
2023-05-21T21:32:22.938Z,63.82
2023-05-21T21:34:53.551Z,63.82
2023-05-21T21:37:23.841Z,62.54
2023-05-21T21:39:54.198Z,63.50
2023-05-21T21:42:24.867Z,62.95
2023-05-21T21:44:55.302Z,64.19
2023-05-21T21:47:26.862Z,64.19
2023-05-21T21:49:59.184Z,63.75
2023-05-21T21:52:29.908Z,64.06
2023-05-21T21:55:00.254Z,64.06
2023-05-21T21:57:30.969Z,65.32
2023-05-21T22:00:02.546Z,65.32
2023-05-21T22:02:35.128Z,66.32
2023-05-21T22:05:06.812Z,67.39
2023-05-21T22:07:37.586Z,66.72
2023-05-21T22:10:08.351Z,66.09
2023-05-21T22:12:41.596Z,65.79
2023-05-21T22:15:21.137Z,65.79
2023-05-21T22:17:51.687Z,66.56
2023-05-21T22:20:23.284Z,66.56
2023-05-21T22:22:55.382Z,67.46
2023-05-21T22:25:26.374Z,66.96
2023-05-21T22:27:56.631Z,67.25
2023-05-21T22:30:26.857Z,67.83
2023-05-21T22:32:57.550Z,67.92
2023-05-21T22:35:27.988Z,68.02
2023-05-21T22:37:58.375Z,68.02
2023-05-21T22:40:28.842Z,68.66
2023-05-21T22:42:59.935Z,68.33
2023-05-21T22:45:31.139Z,68.33
2023-05-21T22:48:01.520Z,68.91
2023-05-21T22:50:33.385Z,69.95
2023-05-21T22:53:03.934Z,70.26
2023-05-21T22:55:36.490Z,69.74
2023-05-21T22:58:06.859Z,70.11
2023-05-21T23:00:37.499Z,70.18
2023-05-21T23:03:09.754Z,70.04
2023-05-21T23:05:40.267Z,69.71
2023-05-21T23:08:10.688Z,70.33
2023-05-21T23:10:42.435Z,70.89
2023-05-21T23:13:15.559Z,71.17
2023-05-21T23:15:45.961Z,71.17
2023-05-21T23:18:16.206Z,70.74
2023-05-21T23:20:46.792Z,71.16
2023-05-21T23:23:17.271Z,71.65
2023-05-21T23:25:47.605Z,71.65
2023-05-21T23:28:19.976Z,71.85
2023-05-21T23:30:50.065Z,71.39
2023-05-21T23:33:20.534Z,71.21
2023-05-21T23:35:51.010Z,71.21
2023-05-21T23:38:21.350Z,71.29
2023-05-21T23:40:52.053Z,71.42
2023-05-21T23:43:22.428Z,71.68
2023-05-21T23:45:52.746Z,71.98
2023-05-21T23:48:23.115Z,71.98
2023-05-21T23:50:53.519Z,71.93
2023-05-21T23:53:24.627Z,71.87
2023-05-21T23:55:57.550Z,71.87
2023-05-21T23:58:27.945Z,71.89
